Time;durP1;ratioP1;P1;durP2;ratioP2;P2;SDS_P1;SDS_P2;PMS_P1;PMS_P2;Temp;Humidity;BMP_temperature;BMP_pressure;BME280_temperature;BME280_humidity;BME280_pressure;Samples;Min_cycle;Max_cycle;Signal;HPM_P1;HPM_P2
2022/06/02 00:00:05;;;;;;;8.20;7.50;;;10.70;99.90;;;;;;5046398;28;20041;-94
2022/06/02 00:02:39;;;;;;;7.00;6.05;;;9.40;99.90;;;;;;5044366;28;20028;-82
2022/06/02 00:05:34;;;;;;;7.40;6.53;;;9.40;99.90;;;;;;5050685;28;20045;-91
2022/06/02 00:08:15;;;;;;;6.88;6.30;;;9.30;99.90;;;;;;5033951;28;20046;-92
2022/06/02 00:11:04;;;;;;;10.68;7.05;;;9.30;99.90;;;;;;5056551;28;20068;-84
2022/06/02 00:13:47;;;;;;;7.93;7.15;;;8.80;99.90;;;;;;5043016;28;20040;-84
2022/06/02 00:16:17;;;;;;;8.48;7.78;;;9.30;99.90;;;;;;5058837;28;20036;-92
2022/06/02 00:18:50;;;;;;;10.07;7.57;;;9.60;99.90;;;;;;5035378;28;20322;-90
2022/06/02 00:21:50;;;;;;;9.15;7.95;;;10.60;99.90;;;;;;5035720;28;20037;-86
2022/06/02 00:24:56;;;;;;;7.15;6.55;;;9.10;99.90;;;;;;5058954;28;20076;-93
2022/06/02 00:27:44;;;;;;;7.07;6.47;;;9.00;99.90;;;;;;5053018;28;20339;-91
2022/06/02 00:30:20;;;;;;;8.15;7.45;;;8.80;99.90;;;;;;5052805;28;20049;-88
2022/06/02 00:33:17;;;;;;;7.63;6.78;;;10.80;99.90;;;;;;5060503;28;20119;-90
2022/06/02 00:36:00;;;;;;;7.97;7.28;;;9.00;99.90;;;;;;5045502;28;20051;-82
2022/06/02 00:38:30;;;;;;;8.55;7.75;;;10.80;99.90;;;;;;5040816;28;20045;-94
2022/06/02 00:41:15;;;;;;;8.38;7.38;;;8.90;99.90;;;;;;5049432;28;20548;-91
2022/06/02 00:43:50;;;;;;;;;;;8.90;99.90;;;;;;5061572;28;20037;-76
2022/06/02 00:46:24;;;;;;;8.10;7.35;;;8.90;99.90;;;;;;5117411;22;19947;-82
2022/06/02 00:48:55;;;;;;;8.23;7.28;;;10.70;99.90;;;;;;5278708;22;20073;-77
2022/06/02 00:51:34;;;;;;;18.13;7.95;;;10.30;99.90;;;;;;5075549;22;20033;-79
2022/06/02 00:57:44;;;;;;;8.40;6.90;;;8.90;99.90;;;;;;5078831;28;20052;-80
2022/06/02 01:00:15;;;;;;;8.35;7.57;;;10.90;99.90;;;;;;5089326;28;20036;-78
2022/06/02 01:02:50;;;;;;;11.20;8.67;;;7.70;99.90;;;;;;5266087;22;20041;-76
2022/06/02 01:05:26;;;;;;;11.35;9.52;;;8.90;99.90;;;;;;5051599;28;20079;-80
2022/06/02 01:08:03;;;;;;;10.43;9.20;;;8.80;99.90;;;;;;5026965;28;20045;-88
2022/06/02 01:10:44;;;;;;;10.23;9.15;;;8.70;99.90;;;;;;5043036;28;20105;-92
2022/06/02 01:13:25;;;;;;;9.68;8.77;;;8.70;99.90;;;;;;5023108;28;20041;-94
2022/06/02 01:16:05;;;;;;;10.05;9.07;;;8.60;99.90;;;;;;5037279;28;20041;-96
2022/06/02 01:18:37;;;;;;;11.32;9.65;;;8.60;99.90;;;;;;5007902;28;20458;-91
2022/06/02 01:21:20;;;;;;;9.50;8.48;;;8.60;99.90;;;;;;5014435;28;20042;-96
2022/06/02 01:23:58;;;;;;;9.93;9.00;;;8.70;99.90;;;;;;5043505;28;20052;-94
2022/06/02 01:26:55;;;;;;;11.02;9.07;;;8.70;99.90;;;;;;5048410;28;20171;-94
2022/06/02 01:29:32;;;;;;;10.10;9.02;;;8.60;99.90;;;;;;5019452;28;20041;-85
2022/06/02 01:32:10;;;;;;;9.82;8.93;;;10.40;99.90;;;;;;5030317;28;20041;-87
2022/06/02 01:35:03;;;;;;;10.23;9.13;;;10.20;99.90;;;;;;5017073;28;20049;-85
2022/06/02 01:37:49;;;;;;;11.27;9.68;;;8.60;99.90;;;;;;5016775;28;20046;-84
2022/06/02 01:40:26;;;;;;;10.77;9.77;;;8.60;99.90;;;;;;5025746;28;20041;-94
2022/06/02 01:43:06;;;;;;;11.57;9.23;;;8.60;99.90;;;;;;4997137;28;20265;-85
2022/06/02 01:46:10;;;;;;;9.23;8.38;;;8.60;99.90;;;;;;5004985;28;20046;-94
2022/06/02 01:48:52;;;;;;;10.45;9.18;;;8.60;99.90;;;;;;4997343;28;20060;-81
2022/06/02 01:51:30;;;;;;;9.57;8.77;;;8.60;99.90;;;;;;5003320;28;20176;-91
2022/06/02 01:54:06;;;;;;;9.57;8.63;;;10.50;99.90;;;;;;5017022;28;20049;-90
2022/06/02 01:56:41;;;;;;;10.48;9.38;;;8.60;99.90;;;;;;5030863;28;20041;-91
2022/06/02 01:59:36;;;;;;;10.18;9.23;;;8.50;99.90;;;;;;5013175;28;20567;-84
2022/06/02 02:02:11;;;;;;;9.85;8.95;;;8.50;99.90;;;;;;5033486;28;20045;-90
2022/06/02 02:04:55;;;;;;;;;;;8.40;99.90;;;;;;5009027;28;20681;-93
2022/06/02 02:07:32;;;;;;;10.27;9.20;;;8.40;99.90;;;;;;5040619;28;19932;-93
2022/06/02 02:10:45;;;;;;;11.85;10.15;;;8.40;99.90;;;;;;5009267;28;20537;-94
2022/06/02 02:13:14;;;;;;;10.25;9.25;;;8.40;99.90;;;;;;5008635;28;20045;-80
2022/06/02 02:16:11;;;;;;;10.63;9.57;;;8.40;99.90;;;;;;5011534;28;20392;-92
2022/06/02 02:18:58;;;;;;;9.60;8.80;;;8.50;99.90;;;;;;5003478;28;20461;-91
2022/06/02 02:21:37;;;;;;;9.95;9.05;;;8.40;99.90;;;;;;4999309;28;20071;-93
2022/06/02 02:24:30;;;;;;;13.18;10.70;;;8.20;99.90;;;;;;5010714;28;20099;-92
2022/06/02 02:27:06;;;;;;;10.35;9.00;;;8.40;99.90;;;;;;5011443;28;20493;-95
2022/06/02 02:30:07;;;;;;;10.02;9.02;;;9.40;99.90;;;;;;5027903;28;20124;-94
2022/06/02 02:32:58;;;;;;;11.20;10.10;;;8.40;99.90;;;;;;5031316;28;20135;-93
2022/06/02 02:35:27;;;;;;;12.38;9.40;;;8.30;99.90;;;;;;5021442;28;20037;-87
2022/06/02 02:38:04;;;;;;;11.10;10.00;;;9.20;99.90;;;;;;5000807;28;20045;-95
2022/06/02 02:40:32;;;;;;;10.50;9.50;;;8.30;99.90;;;;;;5029263;28;20081;-94
2022/06/02 02:43:34;;;;;;;10.50;9.50;;;8.30;99.90;;;;;;5028047;28;20052;-84
2022/06/02 02:46:22;;;;;;;9.60;8.70;;;8.20;99.90;;;;;;5039041;28;20132;-91
2022/06/02 02:49:25;;;;;;;10.73;9.80;;;8.20;99.90;;;;;;5039565;28;20039;-87
2022/06/02 02:51:59;;;;;;;12.25;10.93;;;8.20;99.90;;;;;;5036141;28;20060;-94
2022/06/02 02:54:33;;;;;;;10.60;9.57;;;8.20;99.90;;;;;;5018047;28;20048;-90
2022/06/02 02:57:08;;;;;;;13.00;11.40;;;8.10;99.90;;;;;;5025441;28;20499;-90
2022/06/02 02:59:57;;;;;;;10.70;9.70;;;8.10;99.90;;;;;;5022839;28;20436;-93
2022/06/02 03:02:45;;;;;;;10.60;9.50;;;8.50;99.90;;;;;;5038309;28;20053;-96
2022/06/02 03:05:28;;;;;;;12.55;10.25;;;8.30;99.90;;;;;;5008949;28;20042;-93
2022/06/02 03:08:02;;;;;;;10.05;9.15;;;8.10;99.90;;;;;;5009684;28;20045;-94
2022/06/02 03:10:35;;;;;;;10.80;9.48;;;8.10;99.90;;;;;;5031256;28;20037;-94
2022/06/02 03:13:15;;;;;;;9.90;9.00;;;8.40;99.90;;;;;;5034291;28;20164;-92
2022/06/02 03:16:02;;;;;;;11.27;10.02;;;8.10;99.90;;;;;;5027070;28;20132;-81
2022/06/02 03:18:39;;;;;;;9.93;9.02;;;8.10;99.90;;;;;;5023349;28;20170;-93
2022/06/02 03:21:31;;;;;;;10.88;9.73;;;9.50;99.90;;;;;;5022564;28;20140;-93
2022/06/02 03:24:05;;;;;;;10.90;9.52;;;8.80;99.90;;;;;;5020571;28;20103;-91
2022/06/02 03:26:40;;;;;;;10.18;9.05;;;8.10;99.90;;;;;;5018637;28;20105;-92
2022/06/02 03:29:18;;;;;;;;;;;8.10;99.90;;;;;;5005428;28;20045;-93
2022/06/02 03:32:15;;;;;;;;;;;;;;;;;;;;;
2022/06/02 03:38:29;;;;;;;10.55;9.55;;;9.80;99.90;;;;;;5025874;28;20041;-88
2022/06/02 03:41:46;;;;;;;12.48;8.85;;;7.40;99.90;;;;;;5014764;28;20041;-85
2022/06/02 03:44:30;;;;;;;9.55;8.65;;;7.50;99.90;;;;;;4989641;28;20052;-91
2022/06/02 03:47:35;;;;;;;13.15;9.40;;;9.90;99.90;;;;;;5025947;28;20122;-94
2022/06/02 03:50:42;;;;;;;9.80;8.35;;;8.00;99.90;;;;;;5010422;28;20038;-95
2022/06/02 03:53:22;;;;;;;9.38;8.60;;;8.00;99.90;;;;;;4988450;28;20552;-93
2022/06/02 03:56:06;;;;;;;10.32;9.32;;;7.90;99.90;;;;;;5011368;28;20061;-89
2022/06/02 03:58:55;;;;;;;10.50;9.40;;;7.90;99.90;;;;;;5017508;28;20042;-88
2022/06/02 04:01:40;;;;;;;8.75;7.88;;;9.40;99.90;;;;;;5021468;28;20077;-79
2022/06/02 04:04:30;;;;;;;9.18;8.25;;;7.90;99.90;;;;;;5033129;28;20053;-92
2022/06/02 04:07:34;;;;;;;9.73;8.85;;;8.90;99.90;;;;;;5028802;28;20068;-92
2022/06/02 04:10:24;;;;;;;11.32;9.68;;;7.90;99.90;;;;;;5029981;28;20088;-96
2022/06/02 04:15:50;;;;;;;9.70;8.80;;;7.90;99.90;;;;;;5028486;28;20037;-90
2022/06/02 04:18:28;;;;;;;8.65;7.95;;;7.90;99.90;;;;;;5013290;28;20047;-93
2022/06/02 04:21:10;;;;;;;10.35;8.18;;;7.90;99.90;;;;;;5023511;28;20042;-92
2022/06/02 04:24:31;;;;;;;8.77;7.88;;;7.90;99.90;;;;;;5016553;28;20508;-88
2022/06/02 04:27:39;;;;;;;8.68;7.90;;;7.90;99.90;;;;;;5008271;28;20057;-96
2022/06/02 04:30:29;;;;;;;9.70;8.90;;;7.90;99.90;;;;;;4995557;28;20053;-92
2022/06/02 04:33:01;;;;;;;8.90;8.10;;;7.90;99.90;;;;;;5035518;28;20378;-94
2022/06/02 04:35:34;;;;;;;10.18;8.45;;;7.90;99.90;;;;;;5018411;28;20045;-92
2022/06/02 04:38:24;;;;;;;12.18;8.63;;;7.90;99.90;;;;;;5021791;28;20475;-95
2022/06/02 04:40:59;;;;;;;10.18;8.98;;;8.00;99.90;;;;;;5028821;28;20100;-90
2022/06/02 04:43:33;;;;;;;9.77;8.93;;;8.00;99.90;;;;;;5012099;28;20042;-90
2022/06/02 04:46:23;;;;;;;9.23;8.25;;;8.10;99.90;;;;;;5046246;28;20041;-81
2022/06/02 04:49:25;;;;;;;9.85;7.85;;;8.10;99.90;;;;;;5009360;28;20053;-92
2022/06/02 04:52:24;;;;;;;10.77;9.13;;;8.10;99.90;;;;;;5019502;28;20052;-89
2022/06/02 04:55:06;;;;;;;8.35;7.53;;;8.20;99.90;;;;;;5002098;28;20092;-79
2022/06/02 04:57:57;;;;;;;10.63;8.60;;;8.20;99.90;;;;;;5008030;28;20029;-91
2022/06/02 05:00:42;;;;;;;8.95;7.88;;;8.20;99.90;;;;;;5004275;28;20392;-79
2022/06/02 05:03:15;;;;;;;7.63;6.93;;;8.30;99.90;;;;;;5000954;28;20064;-81
2022/06/02 05:06:18;;;;;;;8.02;7.32;;;8.40;99.90;;;;;;5001362;28;20063;-78
2022/06/02 05:09:13;;;;;;;8.10;6.88;;;8.50;99.90;;;;;;4679284;28;10001009;-77
2022/06/02 05:11:52;;;;;;;8.05;7.05;;;8.60;99.90;;;;;;5020423;28;20058;-81
2022/06/02 05:14:30;;;;;;;7.30;6.40;;;8.70;99.90;;;;;;5022683;28;20041;-83
2022/06/02 05:17:08;;;;;;;9.60;6.43;;;8.80;99.90;;;;;;5033624;28;20734;-83
2022/06/02 05:20:07;;;;;;;8.63;6.40;;;8.90;99.90;;;;;;5025692;28;20375;-85
2022/06/02 05:22:44;;;;;;;7.25;5.43;;;9.00;99.90;;;;;;5019161;28;20081;-81
2022/06/02 05:25:17;;;;;;;6.63;5.82;;;9.00;99.90;;;;;;5017793;28;20141;-81
2022/06/02 05:28:04;;;;;;;7.28;5.50;;;9.20;99.90;;;;;;5026174;28;20405;-80
2022/06/02 05:31:21;;;;;;;9.63;8.02;;;9.30;99.90;;;;;;5021494;28;20083;-79
2022/06/02 05:34:05;;;;;;;5.65;4.93;;;9.40;99.90;;;;;;4999062;28;20133;-80
2022/06/02 05:36:52;;;;;;;5.75;5.13;;;9.50;99.90;;;;;;5040160;28;20508;-80
2022/06/02 05:39:48;;;;;;;5.72;4.68;;;9.60;99.90;;;;;;5019293;28;20088;-83
2022/06/02 05:42:18;;;;;;;5.43;3.90;;;9.60;99.90;;;;;;5023026;28;20068;-76
2022/06/02 05:44:50;;;;;;;5.38;3.88;;;9.70;99.90;;;;;;5014221;28;20037;-90
2022/06/02 05:47:43;;;;;;;4.75;4.30;;;9.80;99.90;;;;;;5006656;28;20052;-92
2022/06/02 05:50:22;;;;;;;5.15;4.10;;;10.00;99.90;;;;;;5021324;28;20042;-80
2022/06/02 05:53:03;;;;;;;4.13;3.58;;;10.10;99.90;;;;;;5026083;28;20050;-86
2022/06/02 05:56:05;;;;;;;11.27;4.28;;;10.10;99.90;;;;;;5025347;28;20455;-82
2022/06/02 05:58:46;;;;;;;4.97;3.33;;;10.20;99.90;;;;;;5011649;28;20041;-89
2022/06/02 06:01:22;;;;;;;2.70;2.50;;;11.10;99.90;;;;;;5011504;28;20067;-92
2022/06/02 06:03:57;;;;;;;3.17;2.83;;;10.60;99.90;;;;;;5009605;28;20136;-91
2022/06/02 06:06:47;;;;;;;4.10;2.90;;;10.50;99.90;;;;;;5027106;28;20485;-87
2022/06/02 06:09:28;;;;;;;6.47;4.13;;;10.60;99.90;;;;;;5021112;28;20489;-91
2022/06/02 06:12:17;;;;;;;11.80;9.20;;;10.70;99.90;;;;;;5009502;28;20037;-83
2022/06/02 06:14:46;;;;;;;2.90;2.50;;;12.60;99.90;;;;;;5009251;28;20799;-83
2022/06/02 06:17:22;;;;;;;4.15;3.05;;;12.30;99.90;;;;;;5024483;28;20072;-83
2022/06/02 06:20:02;;;;;;;3.80;2.67;;;11.80;99.90;;;;;;5027566;28;20053;-79
2022/06/02 06:22:59;;;;;;;3.55;2.25;;;11.50;99.90;;;;;;5010596;28;20091;-77
2022/06/02 06:26:15;;;;;;;4.50;2.05;;;11.10;99.90;;;;;;5026880;28;20084;-85
2022/06/02 06:28:59;;;;;;;3.88;1.70;;;11.20;99.90;;;;;;5025292;28;20061;-90
2022/06/02 06:31:55;;;;;;;5.47;2.13;;;12.90;99.90;;;;;;5009263;28;20105;-80
2022/06/02 06:34:45;;;;;;;4.88;2.15;;;11.20;99.90;;;;;;5005575;28;20090;-81
2022/06/02 06:37:41;;;;;;;3.10;1.92;;;11.20;99.90;;;;;;5012283;28;20087;-87
2022/06/02 06:40:13;;;;;;;3.55;2.20;;;11.30;99.90;;;;;;5031125;28;20132;-85
2022/06/02 06:43:04;;;;;;;4.30;2.35;;;11.40;99.90;;;;;;5014132;28;20042;-77
2022/06/02 06:46:14;;;;;;;1.80;1.67;;;11.60;99.90;;;;;;5030249;28;20041;-82
2022/06/02 06:48:51;;;;;;;6.18;4.20;;;11.60;99.90;;;;;;5010045;28;20060;-82
2022/06/02 06:51:36;;;;;;;2.63;1.80;;;11.90;99.90;;;;;;5030021;28;20176;-87
2022/06/02 06:54:08;;;;;;;2.17;1.77;;;11.70;99.90;;;;;;5025126;28;20053;-83
2022/06/02 06:56:57;;;;;;;4.70;1.52;;;12.70;99.90;;;;;;5028966;28;20440;-88
2022/06/02 06:59:35;;;;;;;4.07;1.77;;;11.70;99.90;;;;;;5025342;28;20045;-78
2022/06/02 07:02:01;;;;;;;5.03;1.77;;;11.70;99.90;;;;;;5030017;28;20049;-89
2022/06/02 07:04:49;;;;;;;2.25;1.50;;;11.70;99.90;;;;;;5013057;28;20099;-82
2022/06/02 07:07:40;;;;;;;2.35;1.17;;;11.70;99.90;;;;;;5008048;28;20619;-86
2022/06/02 07:10:29;;;;;;;2.72;1.42;;;13.40;99.90;;;;;;5019366;28;20049;-85
2022/06/02 07:13:15;;;;;;;2.60;1.27;;;11.80;99.90;;;;;;5028660;28;20182;-86
2022/06/02 07:16:08;;;;;;;4.05;1.52;;;11.90;99.90;;;;;;5012369;28;20048;-86
2022/06/02 07:18:58;;;;;;;2.75;1.25;;;12.00;99.90;;;;;;5030600;28;20053;-87
2022/06/02 07:21:56;;;;;;;5.28;1.48;;;12.10;99.90;;;;;;5024478;28;20053;-88
2022/06/02 07:24:38;;;;;;;2.00;1.27;;;12.10;99.90;;;;;;5024838;28;20575;-87
2022/06/02 07:27:41;;;;;;;3.13;1.50;;;12.20;99.90;;;;;;5013138;28;20068;-91
2022/06/02 07:30:25;;;;;;;2.38;1.83;;;12.20;99.90;;;;;;5030002;28;20045;-87
2022/06/02 07:33:11;;;;;;;3.83;2.60;;;12.30;99.90;;;;;;5025804;28;20041;-86
2022/06/02 07:35:56;;;;;;;2.03;1.50;;;12.30;99.90;;;;;;5029988;28;20120;-88
2022/06/02 07:38:48;;;;;;;;;;;12.40;99.90;;;;;;5024911;28;20072;-87
2022/06/02 07:41:40;;;;;;;5.82;1.83;;;12.50;99.90;;;;;;4989706;28;19928;-92
2022/06/02 07:44:42;;;;;;;3.42;1.10;;;12.40;99.90;;;;;;5046455;28;20056;-90
2022/06/02 07:47:26;;;;;;;1.63;0.93;;;12.50;99.90;;;;;;5026279;28;20388;-87
2022/06/02 07:49:57;;;;;;;2.42;1.20;;;12.50;99.90;;;;;;5012421;28;20045;-88
2022/06/02 07:52:23;;;;;;;4.63;1.35;;;12.60;99.90;;;;;;5029074;28;20046;-89
2022/06/02 07:54:54;;;;;;;3.00;1.15;;;12.70;99.90;;;;;;5011962;28;20128;-86
2022/06/02 07:57:44;;;;;;;2.13;1.20;;;12.70;99.90;;;;;;5021918;28;20401;-78
2022/06/02 08:00:13;;;;;;;4.00;1.35;;;12.80;99.90;;;;;;5029066;28;20493;-88
2022/06/02 08:03:23;;;;;;;4.32;0.90;;;12.70;99.90;;;;;;5028254;28;20056;-90
2022/06/02 08:06:00;;;;;;;3.05;0.90;;;12.80;99.90;;;;;;4991520;28;20055;-87
2022/06/02 08:08:43;;;;;;;2.22;1.00;;;12.80;99.90;;;;;;5012317;28;20496;-80
2022/06/02 08:11:28;;;;;;;1.27;1.08;;;12.90;99.90;;;;;;5012013;28;20041;-87
2022/06/02 08:14:08;;;;;;;1.90;0.82;;;13.00;99.90;;;;;;5012397;28;20048;-86
2022/06/02 08:16:45;;;;;;;2.88;0.90;;;13.00;99.90;;;;;;5012629;28;20048;-87
2022/06/02 08:19:17;;;;;;;2.17;1.00;;;13.00;99.90;;;;;;5012770;28;20045;-86
2022/06/02 08:21:53;;;;;;;2.63;1.20;;;13.00;99.90;;;;;;5011801;28;20135;-89
2022/06/02 08:24:37;;;;;;;2.70;1.05;;;13.20;99.90;;;;;;5035226;28;20047;-83
2022/06/02 08:27:40;;;;;;;3.27;0.80;;;13.10;99.90;;;;;;5011168;28;20041;-80
2022/06/02 08:30:33;;;;;;;4.82;1.17;;;13.20;99.90;;;;;;5010653;28;20045;-88
2022/06/02 08:33:12;;;;;;;3.22;1.20;;;13.20;99.90;;;;;;5011641;28;20042;-90
2022/06/02 08:35:42;;;;;;;3.75;1.55;;;13.20;99.90;;;;;;5011811;28;20080;-89
2022/06/02 08:38:22;;;;;;;6.72;2.58;;;13.20;99.90;;;;;;5029449;28;20048;-89
2022/06/02 08:40:57;;;;;;;2.67;1.17;;;13.30;99.90;;;;;;5027024;28;20112;-88
2022/06/02 08:44:10;;;;;;;5.68;1.10;;;13.30;99.90;;;;;;5021675;28;20041;-87
2022/06/02 08:46:51;;;;;;;3.88;1.02;;;13.40;99.90;;;;;;5017993;28;20425;-86
2022/06/02 08:49:41;;;;;;;4.38;0.98;;;13.50;99.90;;;;;;5002040;28;20068;-81
2022/06/02 08:52:31;;;;;;;5.20;1.38;;;13.40;99.90;;;;;;5020917;28;20465;-87
2022/06/02 08:55:36;;;;;;;3.80;1.23;;;13.50;99.90;;;;;;5011084;28;20076;-86
2022/06/02 08:58:43;;;;;;;6.87;1.17;;;13.60;99.90;;;;;;5008686;28;20050;-85
2022/06/02 09:01:38;;;;;;;2.90;0.93;;;13.70;99.90;;;;;;5006460;28;20041;-83
2022/06/02 09:04:28;;;;;;;0.93;0.70;;;13.70;99.90;;;;;;4973581;28;20057;-77
2022/06/02 09:07:17;;;;;;;4.03;0.80;;;13.70;99.90;;;;;;5003616;28;20183;-78
2022/06/02 09:10:20;;;;;;;1.85;0.93;;;13.70;99.90;;;;;;5010141;28;20297;-78
2022/06/02 09:13:09;;;;;;;2.25;1.10;;;13.80;99.90;;;;;;5009768;28;20053;-81
2022/06/02 09:16:06;;;;;;;0.70;0.70;;;13.80;99.90;;;;;;5038657;28;20409;-87
2022/06/02 09:19:08;;;;;;;2.28;1.08;;;13.90;99.90;;;;;;5026213;28;20044;-79
2022/06/02 09:21:55;;;;;;;3.70;1.00;;;13.90;99.90;;;;;;5027678;28;20053;-78
2022/06/02 09:24:47;;;;;;;1.67;0.77;;;14.00;99.90;;;;;;5011195;28;20044;-88
2022/06/02 09:27:47;;;;;;;10.07;1.10;;;14.00;99.90;;;;;;5027040;28;20045;-77
2022/06/02 09:30:26;;;;;;;1.02;0.70;;;14.00;99.90;;;;;;5027061;28;20045;-81
2022/06/02 09:33:34;;;;;;;3.25;0.93;;;14.10;99.90;;;;;;5009293;28;20080;-76
2022/06/02 09:36:05;;;;;;;6.80;4.32;;;14.10;99.90;;;;;;5027720;28;20417;-76
2022/06/02 09:39:21;;;;;;;1.98;1.20;;;14.20;99.90;;;;;;5026513;28;20041;-75
2022/06/02 09:42:06;;;;;;;4.03;1.10;;;14.20;99.90;;;;;;4988217;28;20050;-77
2022/06/02 09:44:54;;;;;;;3.03;0.77;;;14.10;99.90;;;;;;5021494;28;20466;-76
2022/06/02 09:47:49;;;;;;;4.10;1.08;;;14.20;99.90;;;;;;5010127;28;20048;-82
2022/06/02 09:50:59;;;;;;;1.95;1.15;;;14.30;99.90;;;;;;5008527;28;20049;-76
2022/06/02 09:53:45;;;;;;;4.15;1.13;;;14.50;99.90;;;;;;5003500;28;20053;-88
2022/06/02 09:56:42;;;;;;;1.58;0.98;;;14.50;99.90;;;;;;5024630;28;20561;-86
2022/06/02 09:59:10;;;;;;;2.00;0.80;;;14.60;99.90;;;;;;5010693;28;20553;-78
2022/06/02 10:02:13;;;;;;;2.97;0.90;;;14.60;99.90;;;;;;5024854;28;20211;-77
2022/06/02 10:05:06;;;;;;;2.70;0.90;;;14.50;99.90;;;;;;5024375;28;20167;-89
2022/06/02 10:07:50;;;;;;;1.98;1.13;;;14.50;99.90;;;;;;5026729;28;20041;-83
2022/06/02 10:10:16;;;;;;;2.63;1.13;;;14.50;99.90;;;;;;5011204;28;20163;-75
2022/06/02 10:13:00;;;;;;;4.93;1.13;;;14.60;99.90;;;;;;5025615;28;20061;-86
2022/06/02 10:15:44;;;;;;;1.58;0.80;;;14.70;99.90;;;;;;5012089;28;20041;-86
2022/06/02 10:18:30;;;;;;;4.07;2.55;;;14.80;99.90;;;;;;5030825;28;20041;-85
2022/06/02 10:21:19;;;;;;;4.25;1.08;;;14.90;99.90;;;;;;5027822;28;20080;-77
2022/06/02 10:24:06;;;;;;;1.00;1.00;;;15.00;99.90;;;;;;5009217;28;20142;-83
2022/06/02 10:27:07;;;;;;;3.17;1.85;;;15.10;99.90;;;;;;5006102;28;20136;-78
2022/06/02 10:29:55;;;;;;;1.95;1.30;;;15.20;99.90;;;;;;4988250;28;20041;-86
2022/06/02 10:32:33;;;;;;;3.30;2.17;;;15.20;99.90;;;;;;5029225;28;20053;-83
2022/06/02 10:35:37;;;;;;;1.60;0.85;;;15.20;99.90;;;;;;5028973;28;20048;-85
2022/06/02 10:38:26;;;;;;;7.78;1.20;;;15.20;99.90;;;;;;5013097;28;20477;-79
2022/06/02 10:41:00;;;;;;;0.85;0.85;;;15.10;99.90;;;;;;5026050;28;20076;-81
2022/06/02 10:43:45;;;;;;;3.92;0.93;;;15.20;99.90;;;;;;5029821;28;20038;-89
2022/06/02 10:46:10;;;;;;;3.53;1.30;;;15.30;99.90;;;;;;5029660;28;20060;-80
2022/06/02 10:48:42;;;;;;;2.25;1.20;;;15.60;99.90;;;;;;5030478;28;20049;-76
2022/06/02 10:52:00;;;;;;;5.28;1.55;;;15.20;99.90;;;;;;5013216;28;20084;-87
2022/06/02 10:54:46;;;;;;;1.45;1.02;;;15.20;99.90;;;;;;5029143;28;20552;-80
2022/06/02 10:57:27;;;;;;;3.70;1.00;;;15.20;99.90;;;;;;5029676;28;20534;-86
2022/06/02 11:00:23;;;;;;;0.82;0.80;;;15.20;99.90;;;;;;5013432;28;20037;-88
2022/06/02 11:03:42;;;;;;;2.50;0.82;;;15.20;99.90;;;;;;5028500;28;20052;-87
2022/06/02 11:06:50;;;;;;;2.17;0.75;;;15.40;99.90;;;;;;5029242;28;20057;-83
2022/06/02 11:09:37;;;;;;;1.92;0.98;;;15.50;99.90;;;;;;5030071;28;20052;-81
2022/06/02 11:12:34;;;;;;;1.10;0.60;;;15.50;99.90;;;;;;5028189;28;20045;-82
2022/06/02 11:15:39;;;;;;;2.67;1.23;;;15.60;99.90;;;;;;5029085;28;20045;-91
2022/06/02 11:18:29;;;;;;;2.80;1.00;;;15.80;99.90;;;;;;5012727;28;20073;-82
2022/06/02 11:21:21;;;;;;;2.05;0.80;;;15.90;99.90;;;;;;5011946;28;20053;-77
2022/06/02 11:24:24;;;;;;;1.58;1.10;;;15.90;99.90;;;;;;5004813;28;20138;-84
2022/06/02 11:27:35;;;;;;;4.65;1.20;;;16.00;99.90;;;;;;5012296;28;20046;-81
2022/06/02 11:30:25;;;;;;;1.63;1.00;;;16.20;99.90;;;;;;5027990;28;20097;-88
2022/06/02 11:33:14;;;;;;;1.83;0.75;;;16.20;99.90;;;;;;5027829;28;20046;-76
2022/06/02 11:36:10;;;;;;;4.32;0.90;;;17.00;99.90;;;;;;5018073;28;20471;-83
2022/06/02 11:38:57;;;;;;;4.45;0.90;;;16.00;99.90;;;;;;5012896;28;20064;-77
2022/06/02 11:41:47;;;;;;;2.40;0.85;;;15.90;99.90;;;;;;5027995;28;20033;-87
2022/06/02 11:44:37;;;;;;;1.15;0.70;;;16.00;99.90;;;;;;5029092;28;20049;-86
2022/06/02 11:47:26;;;;;;;3.10;0.77;;;16.10;99.90;;;;;;5028709;28;20038;-88
2022/06/02 11:50:06;;;;;;;1.52;0.90;;;16.20;99.90;;;;;;5029377;28;20365;-87
2022/06/02 11:52:48;;;;;;;4.43;0.93;;;16.40;99.90;;;;;;5012359;28;20072;-89
2022/06/02 11:55:38;;;;;;;1.38;0.95;;;16.40;99.90;;;;;;5028628;28;20041;-81
2022/06/02 11:58:19;;;;;;;1.17;1.00;;;16.60;99.90;;;;;;5030794;28;20100;-78
2022/06/02 12:01:24;;;;;;;3.33;1.10;;;16.90;99.90;;;;;;5028454;28;20045;-84
2022/06/02 12:03:59;;;;;;;;;;;17.10;99.90;;;;;;5026100;28;20064;-86
2022/06/02 12:06:37;;;;;;;1.48;0.93;;;17.40;99.90;;;;;;5028966;28;19925;-77
2022/06/02 12:09:25;;;;;;;3.53;0.90;;;17.70;99.90;;;;;;5027963;28;20366;-77
2022/06/02 12:12:09;;;;;;;2.53;0.80;;;17.70;99.90;;;;;;5016867;28;20124;-80
2022/06/02 12:15:02;;;;;;;2.00;0.97;;;18.00;99.90;;;;;;5027981;28;20816;-77
2022/06/02 12:17:46;;;;;;;2.63;1.00;;;18.10;99.90;;;;;;5028117;28;20288;-82
2022/06/02 12:20:25;;;;;;;;;;;18.10;99.90;;;;;;5028767;28;20049;-80
2022/06/02 12:22:54;;;;;;;2.08;0.50;;;18.30;99.90;;;;;;5020919;28;19925;-78
2022/06/02 12:25:40;;;;;;;0.73;0.70;;;18.40;99.90;;;;;;5011889;28;20029;-89
2022/06/02 12:28:28;;;;;;;5.20;3.92;;;18.70;99.90;;;;;;5026852;28;20052;-85
2022/06/02 12:31:15;;;;;;;3.13;2.33;;;18.70;99.90;;;;;;5007887;28;20056;-88
2022/06/02 12:33:59;;;;;;;2.80;0.93;;;18.70;99.90;;;;;;5011904;28;20050;-77
2022/06/02 12:36:50;;;;;;;;;;;18.60;99.90;;;;;;5010799;28;20405;-82
2022/06/02 12:39:24;;;;;;;4.07;1.05;;;18.60;99.90;;;;;;5012200;28;19928;-80
2022/06/02 12:42:35;;;;;;;3.42;0.95;;;18.50;99.90;;;;;;5028077;28;20033;-76
2022/06/02 12:45:09;;;;;;;2.25;0.90;;;18.60;99.90;;;;;;5027631;28;20417;-77
2022/06/02 12:48:13;;;;;;;2.88;0.80;;;18.70;99.90;;;;;;5027612;28;20277;-84
2022/06/02 12:50:47;;;;;;;1.50;0.88;;;18.80;99.90;;;;;;5027225;28;20188;-78
2022/06/02 12:53:19;;;;;;;3.95;1.77;;;18.80;99.90;;;;;;5011758;28;20041;-86
2022/06/02 12:56:09;;;;;;;4.45;2.00;;;18.80;99.90;;;;;;5026245;28;20033;-77
2022/06/02 12:58:56;;;;;;;17.77;9.50;;;18.70;99.90;;;;;;5027316;28;20481;-86
2022/06/02 13:02:08;;;;;;;1.70;0.80;;;18.60;99.90;;;;;;5011793;28;20128;-86
2022/06/02 13:04:49;;;;;;;2.72;0.88;;;18.60;99.90;;;;;;5009603;28;20060;-85
2022/06/02 13:07:51;;;;;;;1.05;0.60;;;18.70;99.90;;;;;;5010907;28;20122;-87
2022/06/02 13:10:46;;;;;;;2.95;0.80;;;18.70;99.90;;;;;;5005883;28;20073;-83
2022/06/02 13:13:27;;;;;;;1.13;0.70;;;19.00;99.90;;;;;;5028031;28;20037;-83
2022/06/02 13:16:38;;;;;;;1.58;0.73;;;19.20;99.90;;;;;;5001853;28;20039;-76
2022/06/02 13:19:42;;;;;;;1.25;0.70;;;19.30;99.90;;;;;;5009977;28;20054;-77
2022/06/02 13:22:30;;;;;;;4.20;0.77;;;19.40;99.90;;;;;;5027574;28;20059;-76
2022/06/02 13:24:55;;;;;;;1.58;0.77;;;19.60;99.90;;;;;;5021510;28;20365;-77
2022/06/02 13:27:22;;;;;;;1.60;0.73;;;19.60;99.90;;;;;;5026691;28;20078;-86
2022/06/02 13:30:34;;;;;;;4.20;0.77;;;19.80;99.90;;;;;;5025007;28;20041;-77
2022/06/02 13:33:03;;;;;;;1.65;0.70;;;19.90;99.90;;;;;;4966435;28;20421;-80
2022/06/02 13:36:01;;;;;;;3.13;0.68;;;20.10;99.90;;;;;;5025915;28;20080;-85
2022/06/02 13:38:35;;;;;;;2.05;0.77;;;20.30;99.90;;;;;;5027463;28;20139;-78
2022/06/02 13:41:37;;;;;;;0.85;0.73;;;20.40;99.90;;;;;;5043172;28;20041;-87
2022/06/02 13:44:33;;;;;;;0.80;0.50;;;20.20;99.90;;;;;;4988941;28;20108;-85
2022/06/02 13:47:32;;;;;;;1.35;0.50;;;20.00;99.90;;;;;;5022876;28;20508;-86
2022/06/02 13:50:23;;;;;;;2.78;0.77;;;19.80;99.90;;;;;;5010493;28;20041;-85
2022/06/02 13:53:19;;;;;;;4.18;0.90;;;19.50;99.90;;;;;;5008213;28;20053;-87
2022/06/02 13:59:09;;;;;;;1.20;0.60;;;19.50;99.90;;;;;;5026969;28;20485;-90
2022/06/02 14:01:56;;;;;;;2.60;0.57;;;19.60;99.90;;;;;;4329060;28;10000729;-85
2022/06/02 14:04:56;;;;;;;5.35;1.00;;;19.90;99.90;;;;;;5022734;28;20145;-85
2022/06/02 14:07:55;;;;;;;3.05;0.73;;;20.00;99.90;;;;;;5007408;28;20049;-84
2022/06/02 14:10:47;;;;;;;6.22;3.47;;;20.20;99.90;;;;;;5015122;28;20034;-87
2022/06/02 14:13:34;;;;;;;11.23;7.93;;;20.20;99.90;;;;;;5003390;28;20072;-84
2022/06/02 14:16:24;;;;;;;2.10;1.15;;;20.30;99.90;;;;;;5019209;28;20045;-75
2022/06/02 14:18:56;;;;;;;0.57;0.52;;;20.40;99.90;;;;;;5003739;28;20128;-79
2022/06/02 14:21:35;;;;;;;0.80;0.40;;;20.40;99.90;;;;;;5023335;28;20387;-80
2022/06/02 14:24:12;;;;;;;1.02;0.65;;;20.50;99.90;;;;;;5021589;28;20688;-80
2022/06/02 14:26:54;;;;;;;2.13;0.70;;;20.50;99.90;;;;;;5023097;28;20037;-79
2022/06/02 14:30:01;;;;;;;0.68;0.40;;;20.50;99.90;;;;;;5017641;28;20485;-80
2022/06/02 14:33:18;;;;;;;0.93;0.70;;;20.70;99.90;;;;;;5021015;28;20053;-79
2022/06/02 14:35:53;;;;;;;2.13;0.80;;;20.70;99.90;;;;;;4979628;28;20502;-76
2022/06/02 14:38:38;;;;;;;1.67;0.70;;;20.60;99.90;;;;;;5020391;28;20065;-78
2022/06/02 14:41:14;;;;;;;;;;;20.70;99.90;;;;;;5023538;28;20052;-80
2022/06/02 14:44:01;;;;;;;1.30;0.88;;;20.80;99.90;;;;;;5021538;28;19925;-79